sensor_id;sensor_type;location;lat;lon;timestamp;temperature;humidity
84440;SHT31;74675;51.980;5.730;2024-03-23T00:56:00;10.2;76.1
84440;SHT31;74675;51.980;5.730;2024-03-23T00:58:29;10.2;76.2
84440;SHT31;74675;51.980;5.730;2024-03-23T01:00:58;10.2;76.0
84440;SHT31;74675;51.980;5.730;2024-03-23T01:03:26;10.2;76.1
84440;SHT31;74675;51.980;5.730;2024-03-23T01:05:58;10.2;76.2
84440;SHT31;74675;51.980;5.730;2024-03-23T01:08:27;10.2;76.2
84440;SHT31;74675;51.980;5.730;2024-03-23T01:10:57;10.2;76.1
84440;SHT31;74675;51.980;5.730;2024-03-23T01:13:26;10.1;75.8
84440;SHT31;74675;51.980;5.730;2024-03-23T01:15:56;10.1;76.4
84440;SHT31;74675;51.980;5.730;2024-03-23T01:18:25;10.1;76.3
84440;SHT31;74675;51.980;5.730;2024-03-23T01:20:55;10.1;76.0
84440;SHT31;74675;51.980;5.730;2024-03-23T01:23:24;10.1;76.0
84440;SHT31;74675;51.980;5.730;2024-03-23T01:25:55;10.1;76.4
84440;SHT31;74675;51.980;5.730;2024-03-23T01:28:24;10.1;76.5
84440;SHT31;74675;51.980;5.730;2024-03-23T01:30:52;10.1;76.8
84440;SHT31;74675;51.980;5.730;2024-03-23T01:33:21;10.1;76.6
84440;SHT31;74675;51.980;5.730;2024-03-23T01:35:50;10.1;76.5
84440;SHT31;74675;51.980;5.730;2024-03-23T01:38:18;10.1;76.8
84440;SHT31;74675;51.980;5.730;2024-03-23T01:40:47;10.1;76.7
84440;SHT31;74675;51.980;5.730;2024-03-23T01:43:15;10.1;76.8
84440;SHT31;74675;51.980;5.730;2024-03-23T01:45:46;10.1;76.8
84440;SHT31;74675;51.980;5.730;2024-03-23T01:48:14;10.2;76.5
84440;SHT31;74675;51.980;5.730;2024-03-23T01:50:45;10.2;76.5
84440;SHT31;74675;51.980;5.730;2024-03-23T01:53:14;10.2;76.8
84440;SHT31;74675;51.980;5.730;2024-03-23T01:55:48;10.2;76.6
84440;SHT31;74675;51.980;5.730;2024-03-23T01:58:16;10.2;76.3
84440;SHT31;74675;51.980;5.730;2024-03-23T02:00:45;10.2;76.4
84440;SHT31;74675;51.980;5.730;2024-03-23T02:03:26;10.2;76.6
84440;SHT31;74675;51.980;5.730;2024-03-23T02:05:56;10.2;76.8
84440;SHT31;74675;51.980;5.730;2024-03-23T02:08:25;10.2;76.6
84440;SHT31;74675;51.980;5.730;2024-03-23T02:10:53;10.2;76.8
84440;SHT31;74675;51.980;5.730;2024-03-23T02:13:22;10.3;76.3
84440;SHT31;74675;51.980;5.730;2024-03-23T02:15:50;10.3;76.5
84440;SHT31;74675;51.980;5.730;2024-03-23T02:18:19;10.3;76.4
84440;SHT31;74675;51.980;5.730;2024-03-23T02:20:47;10.3;76.4
84440;SHT31;74675;51.980;5.730;2024-03-23T02:23:17;10.3;76.2
84440;SHT31;74675;51.980;5.730;2024-03-23T02:25:46;10.3;75.8
84440;SHT31;74675;51.980;5.730;2024-03-23T02:28:15;10.3;75.7
84440;SHT31;74675;51.980;5.730;2024-03-23T02:30:43;10.3;75.6
84440;SHT31;74675;51.980;5.730;2024-03-23T02:33:12;10.3;75.5
84440;SHT31;74675;51.980;5.730;2024-03-23T02:35:40;10.2;75.4
84440;SHT31;74675;51.980;5.730;2024-03-23T02:38:09;10.2;75.5
84440;SHT31;74675;51.980;5.730;2024-03-23T02:40:37;10.1;75.6
84440;SHT31;74675;51.980;5.730;2024-03-23T02:43:06;10.1;75.8
84440;SHT31;74675;51.980;5.730;2024-03-23T02:45:34;10.0;75.8
84440;SHT31;74675;51.980;5.730;2024-03-23T02:48:03;10.0;75.9
84440;SHT31;74675;51.980;5.730;2024-03-23T02:50:32;9.9;76.0
84440;SHT31;74675;51.980;5.730;2024-03-23T02:53:00;9.9;76.3
84440;SHT31;74675;51.980;5.730;2024-03-23T02:55:29;9.8;76.1
84440;SHT31;74675;51.980;5.730;2024-03-23T02:57:58;9.8;76.3
84440;SHT31;74675;51.980;5.730;2024-03-23T03:00:28;9.7;76.3
84440;SHT31;74675;51.980;5.730;2024-03-23T03:02:56;9.7;76.5
84440;SHT31;74675;51.980;5.730;2024-03-23T03:05:25;9.6;76.6
84440;SHT31;74675;51.980;5.730;2024-03-23T03:07:54;9.6;76.8
84440;SHT31;74675;51.980;5.730;2024-03-23T03:10:22;9.5;76.8
84440;SHT31;74675;51.980;5.730;2024-03-23T03:12:51;9.5;76.9
84440;SHT31;74675;51.980;5.730;2024-03-23T03:15:19;9.4;77.0
84440;SHT31;74675;51.980;5.730;2024-03-23T03:17:48;9.4;77.2
84440;SHT31;74675;51.980;5.730;2024-03-23T03:20:16;9.4;77.2
84440;SHT31;74675;51.980;5.730;2024-03-23T03:22:45;9.4;77.2
84440;SHT31;74675;51.980;5.730;2024-03-23T03:25:16;9.3;77.0
84440;SHT31;74675;51.980;5.730;2024-03-23T03:27:44;9.3;77.4
84440;SHT31;74675;51.980;5.730;2024-03-23T03:30:15;9.3;77.5
84440;SHT31;74675;51.980;5.730;2024-03-23T03:32:44;9.3;77.2
84440;SHT31;74675;51.980;5.730;2024-03-23T03:35:12;9.3;77.0
84440;SHT31;74675;51.980;5.730;2024-03-23T03:37:41;9.3;76.8
84440;SHT31;74675;51.980;5.730;2024-03-23T03:40:11;9.3;76.8
84440;SHT31;74675;51.980;5.730;2024-03-23T03:42:41;9.3;77.0
84440;SHT31;74675;51.980;5.730;2024-03-23T03:45:11;9.3;76.8
84440;SHT31;74675;51.980;5.730;2024-03-23T03:47:39;9.2;76.5
84440;SHT31;74675;51.980;5.730;2024-03-23T03:50:08;9.2;76.4
84440;SHT31;74675;51.980;5.730;2024-03-23T03:52:37;9.2;76.4
84440;SHT31;74675;51.980;5.730;2024-03-23T03:55:13;9.1;76.3
84440;SHT31;74675;51.980;5.730;2024-03-23T03:57:42;9.1;76.1
84440;SHT31;74675;51.980;5.730;2024-03-23T04:00:11;9.1;76.1
84440;SHT31;74675;51.980;5.730;2024-03-23T04:02:40;9.0;75.9
84440;SHT31;74675;51.980;5.730;2024-03-23T04:05:09;9.0;76.0
84440;SHT31;74675;51.980;5.730;2024-03-23T04:07:38;8.9;75.8
84440;SHT31;74675;51.980;5.730;2024-03-23T04:10:07;8.9;75.7
84440;SHT31;74675;51.980;5.730;2024-03-23T04:12:35;8.9;76.0
84440;SHT31;74675;51.980;5.730;2024-03-23T04:15:04;8.8;75.9
84440;SHT31;74675;51.980;5.730;2024-03-23T04:17:33;8.8;75.8
84440;SHT31;74675;51.980;5.730;2024-03-23T04:20:03;8.8;75.5
84440;SHT31;74675;51.980;5.730;2024-03-23T04:22:35;8.8;75.4
84440;SHT31;74675;51.980;5.730;2024-03-23T04:25:04;8.8;75.4
84440;SHT31;74675;51.980;5.730;2024-03-23T04:27:33;8.7;75.4
84440;SHT31;74675;51.980;5.730;2024-03-23T04:30:02;8.7;75.6
84440;SHT31;74675;51.980;5.730;2024-03-23T04:32:36;8.7;75.1
84440;SHT31;74675;51.980;5.730;2024-03-23T04:35:05;8.7;75.1
84440;SHT31;74675;51.980;5.730;2024-03-23T04:37:36;8.6;74.5
84440;SHT31;74675;51.980;5.730;2024-03-23T04:40:08;8.6;74.9
84440;SHT31;74675;51.980;5.730;2024-03-23T04:42:37;8.6;74.4
84440;SHT31;74675;51.980;5.730;2024-03-23T04:45:06;8.6;74.6
84440;SHT31;74675;51.980;5.730;2024-03-23T04:47:37;8.5;74.7
84440;SHT31;74675;51.980;5.730;2024-03-23T04:50:09;8.5;74.4
84440;SHT31;74675;51.980;5.730;2024-03-23T04:52:38;8.5;74.1
84440;SHT31;74675;51.980;5.730;2024-03-23T04:55:08;8.5;74.2
84440;SHT31;74675;51.980;5.730;2024-03-23T04:57:38;8.5;74.0
84440;SHT31;74675;51.980;5.730;2024-03-23T05:00:08;8.4;74.4
84440;SHT31;74675;51.980;5.730;2024-03-23T05:02:43;8.4;73.8
84440;SHT31;74675;51.980;5.730;2024-03-23T05:05:12;8.4;74.3
84440;SHT31;74675;51.980;5.730;2024-03-23T05:07:41;8.4;74.1
84440;SHT31;74675;51.980;5.730;2024-03-23T05:10:10;8.4;74.0
84440;SHT31;74675;51.980;5.730;2024-03-23T05:12:40;8.4;73.6
84440;SHT31;74675;51.980;5.730;2024-03-23T05:15:09;8.4;73.8
84440;SHT31;74675;51.980;5.730;2024-03-23T05:17:38;8.3;74.4
84440;SHT31;74675;51.980;5.730;2024-03-23T05:20:07;8.3;74.4
84440;SHT31;74675;51.980;5.730;2024-03-23T05:22:36;8.3;74.4
84440;SHT31;74675;51.980;5.730;2024-03-23T05:25:05;8.3;74.0
84440;SHT31;74675;51.980;5.730;2024-03-23T05:27:34;8.3;74.1
84440;SHT31;74675;51.980;5.730;2024-03-23T05:30:03;8.3;73.8
84440;SHT31;74675;51.980;5.730;2024-03-23T05:32:32;8.3;73.3
84440;SHT31;74675;51.980;5.730;2024-03-23T05:35:00;8.2;73.8
84440;SHT31;74675;51.980;5.730;2024-03-23T05:37:29;8.2;73.9
84440;SHT31;74675;51.980;5.730;2024-03-23T05:40:00;8.2;73.9
84440;SHT31;74675;51.980;5.730;2024-03-23T05:42:30;8.2;74.0
84440;SHT31;74675;51.980;5.730;2024-03-23T05:44:58;8.2;73.8
84440;SHT31;74675;51.980;5.730;2024-03-23T05:47:27;8.1;73.9
84440;SHT31;74675;51.980;5.730;2024-03-23T05:49:58;8.1;73.6
84440;SHT31;74675;51.980;5.730;2024-03-23T05:52:28;8.1;73.4
84440;SHT31;74675;51.980;5.730;2024-03-23T05:54:56;8.1;73.1
84440;SHT31;74675;51.980;5.730;2024-03-23T05:57:25;8.1;73.3
84440;SHT31;74675;51.980;5.730;2024-03-23T05:59:54;8.0;73.1
84440;SHT31;74675;51.980;5.730;2024-03-23T06:02:23;8.0;73.1
84440;SHT31;74675;51.980;5.730;2024-03-23T06:04:52;8.0;73.4
84440;SHT31;74675;51.980;5.730;2024-03-23T06:07:20;8.0;73.8
84440;SHT31;74675;51.980;5.730;2024-03-23T06:09:49;8.0;74.0
84440;SHT31;74675;51.980;5.730;2024-03-23T06:12:18;7.9;73.6
84440;SHT31;74675;51.980;5.730;2024-03-23T06:14:48;7.9;74.0
84440;SHT31;74675;51.980;5.730;2024-03-23T06:17:16;7.9;74.0
84440;SHT31;74675;51.980;5.730;2024-03-23T06:19:46;8.0;74.3
84440;SHT31;74675;51.980;5.730;2024-03-23T06:22:15;8.0;74.5
84440;SHT31;74675;51.980;5.730;2024-03-23T06:24:45;8.0;74.1
84440;SHT31;74675;51.980;5.730;2024-03-23T06:27:13;8.0;74.2
84440;SHT31;74675;51.980;5.730;2024-03-23T06:29:42;8.0;73.8
84440;SHT31;74675;51.980;5.730;2024-03-23T06:32:11;8.1;73.7
84440;SHT31;74675;51.980;5.730;2024-03-23T06:34:41;8.1;74.1
84440;SHT31;74675;51.980;5.730;2024-03-23T06:37:09;8.1;75.0
84440;SHT31;74675;51.980;5.730;2024-03-23T06:39:38;8.2;74.5
84440;SHT31;74675;51.980;5.730;2024-03-23T06:42:07;8.2;74.0
84440;SHT31;74675;51.980;5.730;2024-03-23T06:44:36;8.3;72.8
84440;SHT31;74675;51.980;5.730;2024-03-23T06:47:05;8.3;72.7
84440;SHT31;74675;51.980;5.730;2024-03-23T06:49:34;8.3;73.3
84440;SHT31;74675;51.980;5.730;2024-03-23T06:52:03;8.4;73.3
84440;SHT31;74675;51.980;5.730;2024-03-23T06:54:31;8.4;72.8
84440;SHT31;74675;51.980;5.730;2024-03-23T06:57:00;8.4;73.4
84440;SHT31;74675;51.980;5.730;2024-03-23T06:59:29;8.5;72.3
84440;SHT31;74675;51.980;5.730;2024-03-23T07:01:57;8.5;71.6
84440;SHT31;74675;51.980;5.730;2024-03-23T07:04:26;8.5;71.5
84440;SHT31;74675;51.980;5.730;2024-03-23T07:06:54;8.5;72.2
84440;SHT31;74675;51.980;5.730;2024-03-23T07:09:23;8.5;71.6
84440;SHT31;74675;51.980;5.730;2024-03-23T07:11:53;8.5;71.1
84440;SHT31;74675;51.980;5.730;2024-03-23T07:14:22;8.5;71.6
84440;SHT31;74675;51.980;5.730;2024-03-23T07:16:51;8.5;71.7
84440;SHT31;74675;51.980;5.730;2024-03-23T07:19:19;8.5;71.6
84440;SHT31;74675;51.980;5.730;2024-03-23T07:21:48;8.5;71.9
84440;SHT31;74675;51.980;5.730;2024-03-23T07:24:16;8.5;72.7
84440;SHT31;74675;51.980;5.730;2024-03-23T07:26:45;8.5;72.4
84440;SHT31;74675;51.980;5.730;2024-03-23T07:29:14;8.5;72.8
84440;SHT31;74675;51.980;5.730;2024-03-23T07:31:42;8.5;73.0
84440;SHT31;74675;51.980;5.730;2024-03-23T07:34:11;8.5;73.1
84440;SHT31;74675;51.980;5.730;2024-03-23T07:36:40;8.5;72.7
84440;SHT31;74675;51.980;5.730;2024-03-23T07:39:08;8.5;73.1
84440;SHT31;74675;51.980;5.730;2024-03-23T07:41:37;8.5;72.9
84440;SHT31;74675;51.980;5.730;2024-03-23T07:44:06;8.5;72.5
84440;SHT31;74675;51.980;5.730;2024-03-23T07:46:34;8.5;73.6
84440;SHT31;74675;51.980;5.730;2024-03-23T07:49:04;8.6;74.2
84440;SHT31;74675;51.980;5.730;2024-03-23T07:51:32;8.6;72.5
84440;SHT31;74675;51.980;5.730;2024-03-23T07:54:04;8.6;72.7
84440;SHT31;74675;51.980;5.730;2024-03-23T07:56:33;8.6;72.7
84440;SHT31;74675;51.980;5.730;2024-03-23T07:59:02;8.7;72.4
84440;SHT31;74675;51.980;5.730;2024-03-23T08:01:33;8.7;72.0
84440;SHT31;74675;51.980;5.730;2024-03-23T08:04:01;8.8;71.0
84440;SHT31;74675;51.980;5.730;2024-03-23T08:06:30;8.8;71.1
84440;SHT31;74675;51.980;5.730;2024-03-23T08:08:58;8.8;70.3
84440;SHT31;74675;51.980;5.730;2024-03-23T08:11:31;8.8;70.9
84440;SHT31;74675;51.980;5.730;2024-03-23T08:14:01;8.9;71.1
84440;SHT31;74675;51.980;5.730;2024-03-23T08:16:32;8.9;71.1
84440;SHT31;74675;51.980;5.730;2024-03-23T08:19:01;9.0;70.8
84440;SHT31;74675;51.980;5.730;2024-03-23T08:21:31;9.1;69.7
84440;SHT31;74675;51.980;5.730;2024-03-23T08:24:00;9.1;69.6
84440;SHT31;74675;51.980;5.730;2024-03-23T08:26:29;9.1;68.4
84440;SHT31;74675;51.980;5.730;2024-03-23T08:28:58;9.2;68.5
84440;SHT31;74675;51.980;5.730;2024-03-23T08:31:26;9.2;67.2
84440;SHT31;74675;51.980;5.730;2024-03-23T08:33:56;9.2;68.1
84440;SHT31;74675;51.980;5.730;2024-03-23T08:36:25;9.3;67.7
84440;SHT31;74675;51.980;5.730;2024-03-23T08:38:56;9.3;67.7
84440;SHT31;74675;51.980;5.730;2024-03-23T08:41:26;9.4;68.1
84440;SHT31;74675;51.980;5.730;2024-03-23T08:43:55;9.5;66.6
84440;SHT31;74675;51.980;5.730;2024-03-23T08:46:24;9.6;64.9
84440;SHT31;74675;51.980;5.730;2024-03-23T08:48:56;9.6;64.0
84440;SHT31;74675;51.980;5.730;2024-03-23T08:51:24;9.7;65.1
84440;SHT31;74675;51.980;5.730;2024-03-23T08:53:52;9.7;66.1
84440;SHT31;74675;51.980;5.730;2024-03-23T08:56:21;9.7;69.1
84440;SHT31;74675;51.980;5.730;2024-03-23T08:58:49;9.8;68.7
84440;SHT31;74675;51.980;5.730;2024-03-23T09:01:18;9.7;70.3
84440;SHT31;74675;51.980;5.730;2024-03-23T09:03:48;9.6;68.3
84440;SHT31;74675;51.980;5.730;2024-03-23T09:06:17;9.5;70.5
84440;SHT31;74675;51.980;5.730;2024-03-23T09:08:46;9.3;71.0
84440;SHT31;74675;51.980;5.730;2024-03-23T09:11:14;9.2;70.6
84440;SHT31;74675;51.980;5.730;2024-03-23T09:13:43;9.1;70.1
84440;SHT31;74675;51.980;5.730;2024-03-23T09:16:11;8.8;70.2
84440;SHT31;74675;51.980;5.730;2024-03-23T09:18:42;8.6;71.8
84440;SHT31;74675;51.980;5.730;2024-03-23T09:21:12;8.5;72.7
84440;SHT31;74675;51.980;5.730;2024-03-23T09:23:43;8.4;73.1
84440;SHT31;74675;51.980;5.730;2024-03-23T09:26:12;8.3;74.3
84440;SHT31;74675;51.980;5.730;2024-03-23T09:28:41;8.3;72.3
84440;SHT31;74675;51.980;5.730;2024-03-23T09:31:09;8.3;72.3
84440;SHT31;74675;51.980;5.730;2024-03-23T09:33:40;8.2;73.2
84440;SHT31;74675;51.980;5.730;2024-03-23T09:36:09;8.2;71.8
84440;SHT31;74675;51.980;5.730;2024-03-23T09:38:38;8.2;72.6
84440;SHT31;74675;51.980;5.730;2024-03-23T09:41:09;8.3;73.9
84440;SHT31;74675;51.980;5.730;2024-03-23T09:43:38;8.3;73.7
84440;SHT31;74675;51.980;5.730;2024-03-23T09:46:07;8.4;70.2
84440;SHT31;74675;51.980;5.730;2024-03-23T09:48:36;8.5;71.4
84440;SHT31;74675;51.980;5.730;2024-03-23T09:51:05;8.7;68.6
84440;SHT31;74675;51.980;5.730;2024-03-23T09:53:35;8.8;68.5
84440;SHT31;74675;51.980;5.730;2024-03-23T09:56:07;8.9;69.0
84440;SHT31;74675;51.980;5.730;2024-03-23T09:58:36;9.0;67.9
84440;SHT31;74675;51.980;5.730;2024-03-23T10:01:05;9.1;70.0
84440;SHT31;74675;51.980;5.730;2024-03-23T10:03:44;9.2;68.3
84440;SHT31;74675;51.980;5.730;2024-03-23T10:06:13;9.4;67.0
84440;SHT31;74675;51.980;5.730;2024-03-23T10:08:41;9.5;66.3
84440;SHT31;74675;51.980;5.730;2024-03-23T10:11:16;9.7;64.8
84440;SHT31;74675;51.980;5.730;2024-03-23T10:13:45;9.9;62.5
84440;SHT31;74675;51.980;5.730;2024-03-23T10:16:24;10.0;61.3
84440;SHT31;74675;51.980;5.730;2024-03-23T10:18:55;10.1;61.6
84440;SHT31;74675;51.980;5.730;2024-03-23T10:21:23;10.2;64.8
84440;SHT31;74675;51.980;5.730;2024-03-23T10:23:52;10.1;65.1
84440;SHT31;74675;51.980;5.730;2024-03-23T10:26:22;9.2;69.7
84440;SHT31;74675;51.980;5.730;2024-03-23T10:28:56;8.3;72.2
84440;SHT31;74675;51.980;5.730;2024-03-23T10:31:27;7.8;76.1
84440;SHT31;74675;51.980;5.730;2024-03-23T10:33:57;7.6;76.6
84440;SHT31;74675;51.980;5.730;2024-03-23T10:36:27;7.4;79.0
84440;SHT31;74675;51.980;5.730;2024-03-23T10:38:57;7.3;77.4
84440;SHT31;74675;51.980;5.730;2024-03-23T10:41:27;7.3;82.2
84440;SHT31;74675;51.980;5.730;2024-03-23T10:43:58;7.3;78.6
84440;SHT31;74675;51.980;5.730;2024-03-23T10:46:27;7.4;79.1
84440;SHT31;74675;51.980;5.730;2024-03-23T10:48:55;7.4;73.6
84440;SHT31;74675;51.980;5.730;2024-03-23T10:51:24;7.5;73.7
84440;SHT31;74675;51.980;5.730;2024-03-23T10:53:56;7.5;75.6
84440;SHT31;74675;51.980;5.730;2024-03-23T10:56:27;7.6;72.6
84440;SHT31;74675;51.980;5.730;2024-03-23T10:59:02;7.7;69.7
84440;SHT31;74675;51.980;5.730;2024-03-23T11:01:31;7.7;73.4
84440;SHT31;74675;51.980;5.730;2024-03-23T11:04:00;7.8;70.8
84440;SHT31;74675;51.980;5.730;2024-03-23T11:06:39;7.9;70.3
84440;SHT31;74675;51.980;5.730;2024-03-23T11:09:41;8.0;69.3
84440;SHT31;74675;51.980;5.730;2024-03-23T11:12:29;8.2;69.2
84440;SHT31;74675;51.980;5.730;2024-03-23T11:15:02;8.4;70.7
84440;SHT31;74675;51.980;5.730;2024-03-23T11:17:32;8.6;68.1
84440;SHT31;74675;51.980;5.730;2024-03-23T11:20:01;8.8;66.3
84440;SHT31;74675;51.980;5.730;2024-03-23T11:22:45;9.0;67.9
84440;SHT31;74675;51.980;5.730;2024-03-23T11:25:18;9.3;65.5
84440;SHT31;74675;51.980;5.730;2024-03-23T11:27:51;9.5;63.0
84440;SHT31;74675;51.980;5.730;2024-03-23T11:30:22;9.6;65.8
84440;SHT31;74675;51.980;5.730;2024-03-23T11:32:52;9.7;64.3
84440;SHT31;74675;51.980;5.730;2024-03-23T11:35:29;9.8;65.0
84440;SHT31;74675;51.980;5.730;2024-03-23T11:38:09;9.8;62.9
84440;SHT31;74675;51.980;5.730;2024-03-23T11:40:40;9.9;62.5
84440;SHT31;74675;51.980;5.730;2024-03-23T11:43:12;10.0;63.8
84440;SHT31;74675;51.980;5.730;2024-03-23T11:45:44;10.1;61.9
84440;SHT31;74675;51.980;5.730;2024-03-23T11:48:14;10.2;59.2
84440;SHT31;74675;51.980;5.730;2024-03-23T11:50:45;10.3;59.5
84440;SHT31;74675;51.980;5.730;2024-03-23T11:53:16;10.4;57.5
84440;SHT31;74675;51.980;5.730;2024-03-23T11:55:46;10.4;59.7
84440;SHT31;74675;51.980;5.730;2024-03-23T11:58:17;10.4;61.2
84440;SHT31;74675;51.980;5.730;2024-03-23T12:00:52;10.4;62.0
84440;SHT31;74675;51.980;5.730;2024-03-23T12:03:21;10.4;57.8
84440;SHT31;74675;51.980;5.730;2024-03-23T12:05:53;10.4;58.3
84440;SHT31;74675;51.980;5.730;2024-03-23T12:08:28;10.4;58.1
84440;SHT31;74675;51.980;5.730;2024-03-23T12:11:07;10.3;58.5
84440;SHT31;74675;51.980;5.730;2024-03-23T12:13:38;10.2;59.0
84440;SHT31;74675;51.980;5.730;2024-03-23T12:16:12;10.2;57.8
84440;SHT31;74675;51.980;5.730;2024-03-23T12:18:42;10.1;58.3
84440;SHT31;74675;51.980;5.730;2024-03-23T12:21:11;10.1;59.5
84440;SHT31;74675;51.980;5.730;2024-03-23T12:23:40;10.2;58.3
84440;SHT31;74675;51.980;5.730;2024-03-23T12:26:10;10.2;59.2
84440;SHT31;74675;51.980;5.730;2024-03-23T12:28:40;10.2;58.1
84440;SHT31;74675;51.980;5.730;2024-03-23T12:31:08;10.3;57.9
84440;SHT31;74675;51.980;5.730;2024-03-23T12:33:37;10.4;58.8
84440;SHT31;74675;51.980;5.730;2024-03-23T12:36:06;10.6;56.1
84440;SHT31;74675;51.980;5.730;2024-03-23T12:38:34;10.7;54.3
84440;SHT31;74675;51.980;5.730;2024-03-23T12:41:03;10.8;55.7
84440;SHT31;74675;51.980;5.730;2024-03-23T12:43:32;10.9;56.1
84440;SHT31;74675;51.980;5.730;2024-03-23T12:46:04;10.9;59.9
84440;SHT31;74675;51.980;5.730;2024-03-23T12:48:34;10.7;60.8
84440;SHT31;74675;51.980;5.730;2024-03-23T12:51:03;10.4;64.0
84440;SHT31;74675;51.980;5.730;2024-03-23T12:53:32;10.2;64.2
84440;SHT31;74675;51.980;5.730;2024-03-23T12:56:00;10.1;62.8
84440;SHT31;74675;51.980;5.730;2024-03-23T12:58:29;10.1;59.7
84440;SHT31;74675;51.980;5.730;2024-03-23T13:01:00;10.1;59.7
84440;SHT31;74675;51.980;5.730;2024-03-23T13:03:28;10.1;58.2
84440;SHT31;74675;51.980;5.730;2024-03-23T13:05:57;10.1;57.7
84440;SHT31;74675;51.980;5.730;2024-03-23T13:08:26;10.2;57.7
84440;SHT31;74675;51.980;5.730;2024-03-23T13:10:54;10.3;56.1
84440;SHT31;74675;51.980;5.730;2024-03-23T13:13:23;10.4;56.2
84440;SHT31;74675;51.980;5.730;2024-03-23T13:15:52;10.4;53.6
84440;SHT31;74675;51.980;5.730;2024-03-23T13:18:20;10.4;54.7
84440;SHT31;74675;51.980;5.730;2024-03-23T13:20:49;10.4;55.4
84440;SHT31;74675;51.980;5.730;2024-03-23T13:23:17;10.4;55.4
84440;SHT31;74675;51.980;5.730;2024-03-23T13:25:52;10.4;55.7
84440;SHT31;74675;51.980;5.730;2024-03-23T13:28:22;10.4;55.7
84440;SHT31;74675;51.980;5.730;2024-03-23T13:30:55;10.4;55.8
84440;SHT31;74675;51.980;5.730;2024-03-23T13:33:24;10.4;57.0
84440;SHT31;74675;51.980;5.730;2024-03-23T13:35:53;10.4;56.1
84440;SHT31;74675;51.980;5.730;2024-03-23T13:38:22;10.4;56.1
84440;SHT31;74675;51.980;5.730;2024-03-23T13:40:53;10.3;55.8
84440;SHT31;74675;51.980;5.730;2024-03-23T13:43:23;10.3;55.9
84440;SHT31;74675;51.980;5.730;2024-03-23T13:45:54;10.3;56.5
84440;SHT31;74675;51.980;5.730;2024-03-23T13:48:25;10.2;56.0
84440;SHT31;74675;51.980;5.730;2024-03-23T13:50:58;10.2;55.4
84440;SHT31;74675;51.980;5.730;2024-03-23T13:53:27;10.2;56.7
84440;SHT31;74675;51.980;5.730;2024-03-23T13:55:56;10.2;54.3
84440;SHT31;74675;51.980;5.730;2024-03-23T13:58:25;10.1;56.0
84440;SHT31;74675;51.980;5.730;2024-03-23T14:00:56;10.1;55.9
84440;SHT31;74675;51.980;5.730;2024-03-23T14:03:26;10.1;58.7
84440;SHT31;74675;51.980;5.730;2024-03-23T14:05:57;10.2;62.4
84440;SHT31;74675;51.980;5.730;2024-03-23T14:08:28;10.3;59.4
84440;SHT31;74675;51.980;5.730;2024-03-23T14:10:59;10.4;59.2
84440;SHT31;74675;51.980;5.730;2024-03-23T14:13:28;10.5;57.4
84440;SHT31;74675;51.980;5.730;2024-03-23T14:15:58;10.6;57.9
84440;SHT31;74675;51.980;5.730;2024-03-23T14:18:27;10.6;56.7
84440;SHT31;74675;51.980;5.730;2024-03-23T14:20:59;10.6;56.5
84440;SHT31;74675;51.980;5.730;2024-03-23T14:23:30;10.6;56.9
84440;SHT31;74675;51.980;5.730;2024-03-23T14:26:00;10.5;56.7
84440;SHT31;74675;51.980;5.730;2024-03-23T14:28:30;10.5;58.6
84440;SHT31;74675;51.980;5.730;2024-03-23T14:30:59;10.4;59.0
84440;SHT31;74675;51.980;5.730;2024-03-23T14:33:29;10.1;60.7
84440;SHT31;74675;51.980;5.730;2024-03-23T14:36:00;9.9;62.2
84440;SHT31;74675;51.980;5.730;2024-03-23T14:38:29;9.7;63.8
84440;SHT31;74675;51.980;5.730;2024-03-23T14:40:59;9.7;62.8
84440;SHT31;74675;51.980;5.730;2024-03-23T14:43:29;9.6;63.2
84440;SHT31;74675;51.980;5.730;2024-03-23T14:46:12;9.6;64.6
84440;SHT31;74675;51.980;5.730;2024-03-23T14:48:42;9.7;62.4
84440;SHT31;74675;51.980;5.730;2024-03-23T14:51:11;9.8;63.0
84440;SHT31;74675;51.980;5.730;2024-03-23T14:53:41;9.9;61.3
84440;SHT31;74675;51.980;5.730;2024-03-23T14:56:14;10.0;61.2
84440;SHT31;74675;51.980;5.730;2024-03-23T14:58:44;10.1;60.2
84440;SHT31;74675;51.980;5.730;2024-03-23T15:01:14;10.1;59.8
84440;SHT31;74675;51.980;5.730;2024-03-23T15:03:44;10.1;59.7
84440;SHT31;74675;51.980;5.730;2024-03-23T15:06:15;10.2;61.5
84440;SHT31;74675;51.980;5.730;2024-03-23T15:08:44;10.3;59.8
84440;SHT31;74675;51.980;5.730;2024-03-23T15:11:13;10.5;59.8
84440;SHT31;74675;51.980;5.730;2024-03-23T15:13:44;10.6;59.7
84440;SHT31;74675;51.980;5.730;2024-03-23T15:16:17;10.8;58.2
84440;SHT31;74675;51.980;5.730;2024-03-23T15:18:46;11.0;57.5
84440;SHT31;74675;51.980;5.730;2024-03-23T15:21:15;11.1;56.8
84440;SHT31;74675;51.980;5.730;2024-03-23T15:23:47;11.3;56.0
84440;SHT31;74675;51.980;5.730;2024-03-23T15:26:15;11.4;56.0
84440;SHT31;74675;51.980;5.730;2024-03-23T15:28:47;11.5;55.6
84440;SHT31;74675;51.980;5.730;2024-03-23T15:31:28;11.6;54.1
84440;SHT31;74675;51.980;5.730;2024-03-23T15:33:59;11.6;52.3
84440;SHT31;74675;51.980;5.730;2024-03-23T15:36:30;11.6;53.6
84440;SHT31;74675;51.980;5.730;2024-03-23T15:38:59;11.5;53.6
84440;SHT31;74675;51.980;5.730;2024-03-23T15:41:27;11.5;52.3
84440;SHT31;74675;51.980;5.730;2024-03-23T15:43:57;11.5;51.3
84440;SHT31;74675;51.980;5.730;2024-03-23T15:46:26;11.5;52.0
84440;SHT31;74675;51.980;5.730;2024-03-23T15:48:54;11.5;50.6
84440;SHT31;74675;51.980;5.730;2024-03-23T15:51:23;11.4;52.0
84440;SHT31;74675;51.980;5.730;2024-03-23T15:53:57;11.4;52.1
84440;SHT31;74675;51.980;5.730;2024-03-23T15:56:25;11.4;52.0
84440;SHT31;74675;51.980;5.730;2024-03-23T15:58:54;11.3;52.3
84440;SHT31;74675;51.980;5.730;2024-03-23T16:01:27;11.3;53.0
84440;SHT31;74675;51.980;5.730;2024-03-23T16:03:55;11.2;53.3
84440;SHT31;74675;51.980;5.730;2024-03-23T16:06:24;11.2;53.2
84440;SHT31;74675;51.980;5.730;2024-03-23T16:08:53;11.2;54.7
84440;SHT31;74675;51.980;5.730;2024-03-23T16:11:23;11.1;53.2
84440;SHT31;74675;51.980;5.730;2024-03-23T16:13:52;11.1;54.0
84440;SHT31;74675;51.980;5.730;2024-03-23T16:16:20;11.0;54.7
84440;SHT31;74675;51.980;5.730;2024-03-23T16:18:50;11.0;55.1
84440;SHT31;74675;51.980;5.730;2024-03-23T16:21:18;11.0;55.0
84440;SHT31;74675;51.980;5.730;2024-03-23T16:23:47;11.0;55.3
84440;SHT31;74675;51.980;5.730;2024-03-23T16:26:15;11.1;55.8
84440;SHT31;74675;51.980;5.730;2024-03-23T16:28:46;11.1;55.8
84440;SHT31;74675;51.980;5.730;2024-03-23T16:31:15;11.1;55.7
84440;SHT31;74675;51.980;5.730;2024-03-23T16:33:43;11.1;57.2
84440;SHT31;74675;51.980;5.730;2024-03-23T16:36:12;11.2;57.0
84440;SHT31;74675;51.980;5.730;2024-03-23T16:38:44;11.3;56.2
84440;SHT31;74675;51.980;5.730;2024-03-23T16:41:13;11.3;56.5
84440;SHT31;74675;51.980;5.730;2024-03-23T16:43:42;11.3;56.1
84440;SHT31;74675;51.980;5.730;2024-03-23T16:46:12;11.3;55.5
84440;SHT31;74675;51.980;5.730;2024-03-23T16:48:43;11.3;55.2
84440;SHT31;74675;51.980;5.730;2024-03-23T16:51:12;11.2;55.4
84440;SHT31;74675;51.980;5.730;2024-03-23T16:53:41;11.1;55.8
84440;SHT31;74675;51.980;5.730;2024-03-23T16:56:11;11.0;56.1
84440;SHT31;74675;51.980;5.730;2024-03-23T16:58:40;10.9;55.0
84440;SHT31;74675;51.980;5.730;2024-03-23T17:01:10;10.8;55.7
84440;SHT31;74675;51.980;5.730;2024-03-23T17:03:46;10.7;55.4
84440;SHT31;74675;51.980;5.730;2024-03-23T17:06:16;10.6;55.2
84440;SHT31;74675;51.980;5.730;2024-03-23T17:08:46;10.5;55.8
84440;SHT31;74675;51.980;5.730;2024-03-23T17:11:15;10.5;56.2
84440;SHT31;74675;51.980;5.730;2024-03-23T17:13:44;10.4;56.2
84440;SHT31;74675;51.980;5.730;2024-03-23T17:16:14;10.4;56.6
84440;SHT31;74675;51.980;5.730;2024-03-23T17:18:42;10.3;57.1
84440;SHT31;74675;51.980;5.730;2024-03-23T17:21:11;10.3;58.8